Batman Airport Batman TR
ICAO: LTCJ
IATA: BAL
Category: Medium
Scheduled Services: Yes

Elevation: 1822 ft
TransAlt. 7000 ft.

Airport Communications:
DIYARBAKIR APP:122.1
GND:121.95
TWR:122.1

LTCJ Zoom In..

If you have problems with the map follow the link
https://www.worldairports.se/pages/airport.php?
ICAO=LTCJ

Runways:

(A) RW 02 length 10000 ft width 148 ft
ILS 108.10 / hdg 21

(B) RW 20 length 10000 ft width 148 ft
---- / hdg 201

Location; LTCJ
Day. 18 / Time. 04.50 Zulu
* QNH: 1009
* Temperature: 27° c. 80.6°f.
* Wind from: 020° Speed 04 kn.
Dewpoint: 13° c.
Visibility: 10 km or more.
Clouds: Few 1000 ft.

LTCJ 180450Z 02004KT 330V050 9999 FEW100 27/13 Q1009


Wind From 020°
Speed 04 kn.

 
 
jpsmedia.com for Web Design worldairports.se 2019   terms of use